sensor_id;sensor_type;location;lat;lon;timestamp;P1;durP1;ratioP1;P2;durP2;ratioP2
44642;SDS011;33930;-34.276;150.954;2022-11-18T00:01:12;15.18;;;2.17;;
44642;SDS011;33930;-34.276;150.954;2022-11-18T00:03:41;6.53;;;0.98;;
44642;SDS011;33930;-34.276;150.954;2022-11-18T00:06:10;4.03;;;1.42;;
44642;SDS011;33930;-34.276;150.954;2022-11-18T00:08:39;8.68;;;1.63;;
44642;SDS011;33930;-34.276;150.954;2022-11-18T00:11:07;8.38;;;1.23;;
44642;SDS011;33930;-34.276;150.954;2022-11-18T00:13:37;17.65;;;3.22;;
44642;SDS011;33930;-34.276;150.954;2022-11-18T00:16:23;14.00;;;2.67;;
44642;SDS011;33930;-34.276;150.954;2022-11-18T00:18:50;8.90;;;0.93;;
44642;SDS011;33930;-34.276;150.954;2022-11-18T00:21:18;10.35;;;1.10;;
44642;SDS011;33930;-34.276;150.954;2022-11-18T00:23:47;7.95;;;1.00;;
44642;SDS011;33930;-34.276;150.954;2022-11-18T00:26:14;7.63;;;1.50;;
44642;SDS011;33930;-34.276;150.954;2022-11-18T00:28:41;8.93;;;1.13;;
44642;SDS011;33930;-34.276;150.954;2022-11-18T00:31:10;6.82;;;1.42;;
44642;SDS011;33930;-34.276;150.954;2022-11-18T00:33:38;7.22;;;1.40;;
44642;SDS011;33930;-34.276;150.954;2022-11-18T00:36:07;12.63;;;1.30;;
44642;SDS011;33930;-34.276;150.954;2022-11-18T00:38:36;11.13;;;1.52;;
44642;SDS011;33930;-34.276;150.954;2022-11-18T00:41:11;2.78;;;0.65;;
44642;SDS011;33930;-34.276;150.954;2022-11-18T00:43:40;7.75;;;1.17;;
44642;SDS011;33930;-34.276;150.954;2022-11-18T00:46:09;7.90;;;1.77;;
44642;SDS011;33930;-34.276;150.954;2022-11-18T00:48:37;8.05;;;1.00;;
44642;SDS011;33930;-34.276;150.954;2022-11-18T00:51:09;5.25;;;1.90;;
44642;SDS011;33930;-34.276;150.954;2022-11-18T00:53:41;5.38;;;0.90;;
44642;SDS011;33930;-34.276;150.954;2022-11-18T00:56:08;9.93;;;1.15;;
44642;SDS011;33930;-34.276;150.954;2022-11-18T00:58:36;10.45;;;1.33;;
44642;SDS011;33930;-34.276;150.954;2022-11-18T01:01:03;4.95;;;0.82;;
44642;SDS011;33930;-34.276;150.954;2022-11-18T01:03:31;8.88;;;1.35;;
44642;SDS011;33930;-34.276;150.954;2022-11-18T01:05:58;7.85;;;1.70;;
44642;SDS011;33930;-34.276;150.954;2022-11-18T01:08:25;6.90;;;0.75;;
44642;SDS011;33930;-34.276;150.954;2022-11-18T01:10:53;8.50;;;2.00;;
44642;SDS011;33930;-34.276;150.954;2022-11-18T01:13:40;9.05;;;0.90;;
44642;SDS011;33930;-34.276;150.954;2022-11-18T01:16:07;3.08;;;0.80;;
44642;SDS011;33930;-34.276;150.954;2022-11-18T01:18:34;9.45;;;1.73;;
44642;SDS011;33930;-34.276;150.954;2022-11-18T01:21:02;17.27;;;2.22;;
44642;SDS011;33930;-34.276;150.954;2022-11-18T01:23:30;8.40;;;1.52;;
44642;SDS011;33930;-34.276;150.954;2022-11-18T01:26:02;10.38;;;1.70;;
44642;SDS011;33930;-34.276;150.954;2022-11-18T01:28:31;11.32;;;2.13;;
44642;SDS011;33930;-34.276;150.954;2022-11-18T01:31:04;5.00;;;0.88;;
44642;SDS011;33930;-34.276;150.954;2022-11-18T01:33:33;9.27;;;0.80;;
44642;SDS011;33930;-34.276;150.954;2022-11-18T01:36:01;7.25;;;0.93;;
44642;SDS011;33930;-34.276;150.954;2022-11-18T01:38:28;8.13;;;1.15;;
44642;SDS011;33930;-34.276;150.954;2022-11-18T01:40:56;5.97;;;1.48;;
44642;SDS011;33930;-34.276;150.954;2022-11-18T01:43:23;14.63;;;2.08;;
44642;SDS011;33930;-34.276;150.954;2022-11-18T01:45:51;5.78;;;0.80;;
44642;SDS011;33930;-34.276;150.954;2022-11-18T01:50:49;7.97;;;0.88;;
44642;SDS011;33930;-34.276;150.954;2022-11-18T01:53:21;3.05;;;1.02;;
44642;SDS011;33930;-34.276;150.954;2022-11-18T01:55:54;6.93;;;0.82;;
44642;SDS011;33930;-34.276;150.954;2022-11-18T01:58:34;9.88;;;1.13;;
44642;SDS011;33930;-34.276;150.954;2022-11-18T02:01:14;10.05;;;2.95;;
44642;SDS011;33930;-34.276;150.954;2022-11-18T02:03:42;10.75;;;2.60;;
44642;SDS011;33930;-34.276;150.954;2022-11-18T02:06:11;4.75;;;1.10;;
44642;SDS011;33930;-34.276;150.954;2022-11-18T02:08:39;9.43;;;1.42;;
44642;SDS011;33930;-34.276;150.954;2022-11-18T02:11:11;6.78;;;0.98;;
44642;SDS011;33930;-34.276;150.954;2022-11-18T02:13:58;12.23;;;2.00;;
44642;SDS011;33930;-34.276;150.954;2022-11-18T02:24:58;6.20;;;1.40;;
44642;SDS011;33930;-34.276;150.954;2022-11-18T02:30:03;7.85;;;1.92;;
44642;SDS011;33930;-34.276;150.954;2022-11-18T02:35:17;13.93;;;1.85;;
44642;SDS011;33930;-34.276;150.954;2022-11-18T02:42:53;12.85;;;1.50;;
44642;SDS011;33930;-34.276;150.954;2022-11-18T02:45:24;8.75;;;1.48;;
44642;SDS011;33930;-34.276;150.954;2022-11-18T02:47:53;19.58;;;3.22;;
44642;SDS011;33930;-34.276;150.954;2022-11-18T02:50:23;16.00;;;3.03;;
44642;SDS011;33930;-34.276;150.954;2022-11-18T02:52:54;8.70;;;2.65;;
44642;SDS011;33930;-34.276;150.954;2022-11-18T02:55:26;11.15;;;1.63;;
44642;SDS011;33930;-34.276;150.954;2022-11-18T02:57:56;9.07;;;1.33;;
44642;SDS011;33930;-34.276;150.954;2022-11-18T03:00:25;13.68;;;1.33;;
44642;SDS011;33930;-34.276;150.954;2022-11-18T03:02:53;5.72;;;1.55;;
44642;SDS011;33930;-34.276;150.954;2022-11-18T03:08:12;12.00;;;1.45;;
44642;SDS011;33930;-34.276;150.954;2022-11-18T03:10:49;8.55;;;1.42;;
44642;SDS011;33930;-34.276;150.954;2022-11-18T03:13:23;5.88;;;1.27;;
44642;SDS011;33930;-34.276;150.954;2022-11-18T03:16:00;7.18;;;1.50;;
44642;SDS011;33930;-34.276;150.954;2022-11-18T03:18:41;18.38;;;2.72;;
44642;SDS011;33930;-34.276;150.954;2022-11-18T03:22:04;10.05;;;1.88;;
44642;SDS011;33930;-34.276;150.954;2022-11-18T03:24:29;9.50;;;1.60;;
44642;SDS011;33930;-34.276;150.954;2022-11-18T03:27:06;8.57;;;1.15;;
44642;SDS011;33930;-34.276;150.954;2022-11-18T03:29:53;12.10;;;2.00;;
44642;SDS011;33930;-34.276;150.954;2022-11-18T03:32:36;7.63;;;1.45;;
44642;SDS011;33930;-34.276;150.954;2022-11-18T03:35:09;11.70;;;1.25;;
44642;SDS011;33930;-34.276;150.954;2022-11-18T03:37:42;11.45;;;1.02;;
44642;SDS011;33930;-34.276;150.954;2022-11-18T03:40:17;7.97;;;1.17;;
44642;SDS011;33930;-34.276;150.954;2022-11-18T03:42:49;10.27;;;1.30;;
44642;SDS011;33930;-34.276;150.954;2022-11-18T03:45:23;6.65;;;1.48;;
44642;SDS011;33930;-34.276;150.954;2022-11-18T03:48:16;9.32;;;1.88;;
44642;SDS011;33930;-34.276;150.954;2022-11-18T03:50:53;8.55;;;1.20;;
44642;SDS011;33930;-34.276;150.954;2022-11-18T03:53:34;14.57;;;2.22;;
44642;SDS011;33930;-34.276;150.954;2022-11-18T03:56:08;10.77;;;1.80;;
44642;SDS011;33930;-34.276;150.954;2022-11-18T03:58:49;8.95;;;1.77;;
44642;SDS011;33930;-34.276;150.954;2022-11-18T04:02:03;6.78;;;0.90;;
44642;SDS011;33930;-34.276;150.954;2022-11-18T04:04:43;7.35;;;1.40;;
44642;SDS011;33930;-34.276;150.954;2022-11-18T04:09:53;8.75;;;1.00;;
44642;SDS011;33930;-34.276;150.954;2022-11-18T04:15:30;6.80;;;1.58;;
44642;SDS011;33930;-34.276;150.954;2022-11-18T04:18:00;9.15;;;1.73;;
44642;SDS011;33930;-34.276;150.954;2022-11-18T04:20:27;11.55;;;1.80;;
44642;SDS011;33930;-34.276;150.954;2022-11-18T04:22:56;11.70;;;1.77;;
44642;SDS011;33930;-34.276;150.954;2022-11-18T04:25:24;11.55;;;2.00;;
44642;SDS011;33930;-34.276;150.954;2022-11-18T04:27:52;10.05;;;1.23;;
44642;SDS011;33930;-34.276;150.954;2022-11-18T04:30:19;10.48;;;2.17;;
44642;SDS011;33930;-34.276;150.954;2022-11-18T04:32:47;13.85;;;2.03;;
44642;SDS011;33930;-34.276;150.954;2022-11-18T04:35:14;8.05;;;1.02;;
44642;SDS011;33930;-34.276;150.954;2022-11-18T04:37:42;11.25;;;1.30;;
44642;SDS011;33930;-34.276;150.954;2022-11-18T04:40:09;7.50;;;1.00;;
44642;SDS011;33930;-34.276;150.954;2022-11-18T04:42:37;16.10;;;1.75;;
44642;SDS011;33930;-34.276;150.954;2022-11-18T04:45:04;8.02;;;1.17;;
44642;SDS011;33930;-34.276;150.954;2022-11-18T04:47:32;8.30;;;1.48;;
44642;SDS011;33930;-34.276;150.954;2022-11-18T04:49:59;8.38;;;1.30;;
44642;SDS011;33930;-34.276;150.954;2022-11-18T04:52:27;8.57;;;1.27;;
44642;SDS011;33930;-34.276;150.954;2022-11-18T04:54:54;10.02;;;1.27;;
44642;SDS011;33930;-34.276;150.954;2022-11-18T04:57:21;17.58;;;1.70;;
44642;SDS011;33930;-34.276;150.954;2022-11-18T04:59:48;13.45;;;1.80;;
44642;SDS011;33930;-34.276;150.954;2022-11-18T05:02:16;8.70;;;1.65;;
44642;SDS011;33930;-34.276;150.954;2022-11-18T05:04:43;6.18;;;1.27;;
44642;SDS011;33930;-34.276;150.954;2022-11-18T05:07:12;5.10;;;1.13;;
44642;SDS011;33930;-34.276;150.954;2022-11-18T05:09:41;19.40;;;3.08;;
44642;SDS011;33930;-34.276;150.954;2022-11-18T05:12:11;13.10;;;2.55;;
44642;SDS011;33930;-34.276;150.954;2022-11-18T05:14:57;17.85;;;3.17;;
44642;SDS011;33930;-34.276;150.954;2022-11-18T05:17:25;16.38;;;1.73;;
44642;SDS011;33930;-34.276;150.954;2022-11-18T05:19:53;7.25;;;1.20;;
44642;SDS011;33930;-34.276;150.954;2022-11-18T05:22:20;3.53;;;0.85;;
44642;SDS011;33930;-34.276;150.954;2022-11-18T05:24:47;8.27;;;1.50;;
44642;SDS011;33930;-34.276;150.954;2022-11-18T05:27:15;10.38;;;2.40;;
44642;SDS011;33930;-34.276;150.954;2022-11-18T05:29:42;14.65;;;2.22;;
44642;SDS011;33930;-34.276;150.954;2022-11-18T05:32:09;8.00;;;1.77;;
44642;SDS011;33930;-34.276;150.954;2022-11-18T05:34:38;17.63;;;2.63;;
44642;SDS011;33930;-34.276;150.954;2022-11-18T05:37:06;8.45;;;1.95;;
44642;SDS011;33930;-34.276;150.954;2022-11-18T05:39:33;16.90;;;4.00;;
44642;SDS011;33930;-34.276;150.954;2022-11-18T05:42:01;13.25;;;2.03;;
44642;SDS011;33930;-34.276;150.954;2022-11-18T05:44:46;12.90;;;1.80;;
44642;SDS011;33930;-34.276;150.954;2022-11-18T05:47:14;9.10;;;2.03;;
44642;SDS011;33930;-34.276;150.954;2022-11-18T05:49:41;23.83;;;3.72;;
44642;SDS011;33930;-34.276;150.954;2022-11-18T05:52:09;16.83;;;3.22;;
44642;SDS011;33930;-34.276;150.954;2022-11-18T05:54:43;9.13;;;2.72;;
44642;SDS011;33930;-34.276;150.954;2022-11-18T05:57:14;14.63;;;2.70;;
44642;SDS011;33930;-34.276;150.954;2022-11-18T05:59:42;14.70;;;2.45;;
44642;SDS011;33930;-34.276;150.954;2022-11-18T06:02:27;14.23;;;1.80;;
44642;SDS011;33930;-34.276;150.954;2022-11-18T06:04:56;12.25;;;1.48;;
44642;SDS011;33930;-34.276;150.954;2022-11-18T06:07:28;8.68;;;1.70;;
44642;SDS011;33930;-34.276;150.954;2022-11-18T06:10:04;11.25;;;1.83;;
44642;SDS011;33930;-34.276;150.954;2022-11-18T06:12:36;13.25;;;2.53;;
44642;SDS011;33930;-34.276;150.954;2022-11-18T06:18:15;23.38;;;3.22;;
44642;SDS011;33930;-34.276;150.954;2022-11-18T06:20:53;18.80;;;2.88;;
44642;SDS011;33930;-34.276;150.954;2022-11-18T06:23:25;4.68;;;1.92;;
44642;SDS011;33930;-34.276;150.954;2022-11-18T06:25:54;12.95;;;1.73;;
44642;SDS011;33930;-34.276;150.954;2022-11-18T06:28:21;16.40;;;2.90;;
44642;SDS011;33930;-34.276;150.954;2022-11-18T06:30:49;16.52;;;2.75;;
44642;SDS011;33930;-34.276;150.954;2022-11-18T06:33:16;29.42;;;4.40;;
44642;SDS011;33930;-34.276;150.954;2022-11-18T06:35:44;19.55;;;2.63;;
44642;SDS011;33930;-34.276;150.954;2022-11-18T06:38:11;18.15;;;2.88;;
44642;SDS011;33930;-34.276;150.954;2022-11-18T06:40:38;24.50;;;3.13;;
44642;SDS011;33930;-34.276;150.954;2022-11-18T06:43:09;23.88;;;4.03;;
44642;SDS011;33930;-34.276;150.954;2022-11-18T06:45:59;24.98;;;4.03;;
44642;SDS011;33930;-34.276;150.954;2022-11-18T06:48:45;26.45;;;3.35;;
44642;SDS011;33930;-34.276;150.954;2022-11-18T06:51:13;16.88;;;2.60;;
44642;SDS011;33930;-34.276;150.954;2022-11-18T06:53:40;15.80;;;2.60;;
44642;SDS011;33930;-34.276;150.954;2022-11-18T06:56:09;9.27;;;1.77;;
44642;SDS011;33930;-34.276;150.954;2022-11-18T06:58:38;9.10;;;1.98;;
44642;SDS011;33930;-34.276;150.954;2022-11-18T07:01:14;20.92;;;2.35;;
44642;SDS011;33930;-34.276;150.954;2022-11-18T07:03:46;11.93;;;1.30;;
44642;SDS011;33930;-34.276;150.954;2022-11-18T07:06:17;25.80;;;3.53;;
44642;SDS011;33930;-34.276;150.954;2022-11-18T07:08:47;24.05;;;2.65;;
44642;SDS011;33930;-34.276;150.954;2022-11-18T07:11:15;14.20;;;2.22;;
44642;SDS011;33930;-34.276;150.954;2022-11-18T07:13:45;16.73;;;3.67;;
44642;SDS011;33930;-34.276;150.954;2022-11-18T07:16:17;11.77;;;2.20;;
44642;SDS011;33930;-34.276;150.954;2022-11-18T07:18:47;37.40;;;4.30;;
44642;SDS011;33930;-34.276;150.954;2022-11-18T07:21:21;19.27;;;4.57;;
44642;SDS011;33930;-34.276;150.954;2022-11-18T07:23:51;12.80;;;2.33;;
44642;SDS011;33930;-34.276;150.954;2022-11-18T07:26:19;9.43;;;2.50;;
44642;SDS011;33930;-34.276;150.954;2022-11-18T07:28:47;14.40;;;2.88;;
44642;SDS011;33930;-34.276;150.954;2022-11-18T07:31:15;9.25;;;1.55;;
44642;SDS011;33930;-34.276;150.954;2022-11-18T07:33:45;10.55;;;1.63;;
44642;SDS011;33930;-34.276;150.954;2022-11-18T07:36:25;9.77;;;2.47;;
44642;SDS011;33930;-34.276;150.954;2022-11-18T07:38:54;17.42;;;2.78;;
44642;SDS011;33930;-34.276;150.954;2022-11-18T07:41:25;22.83;;;2.70;;
44642;SDS011;33930;-34.276;150.954;2022-11-18T07:43:54;12.93;;;3.00;;
44642;SDS011;33930;-34.276;150.954;2022-11-18T07:46:23;11.43;;;2.38;;
44642;SDS011;33930;-34.276;150.954;2022-11-18T07:48:54;10.50;;;3.40;;
44642;SDS011;33930;-34.276;150.954;2022-11-18T07:51:24;10.43;;;2.28;;
44642;SDS011;33930;-34.276;150.954;2022-11-18T07:53:53;14.88;;;4.25;;
44642;SDS011;33930;-34.276;150.954;2022-11-18T07:56:22;19.80;;;4.07;;
44642;SDS011;33930;-34.276;150.954;2022-11-18T07:58:53;13.20;;;2.38;;
44642;SDS011;33930;-34.276;150.954;2022-11-18T08:01:22;10.38;;;1.20;;
44642;SDS011;33930;-34.276;150.954;2022-11-18T08:03:53;12.32;;;2.80;;
44642;SDS011;33930;-34.276;150.954;2022-11-18T08:06:20;14.50;;;1.90;;
44642;SDS011;33930;-34.276;150.954;2022-11-18T08:08:48;10.50;;;2.17;;
44642;SDS011;33930;-34.276;150.954;2022-11-18T08:11:16;16.00;;;2.33;;
44642;SDS011;33930;-34.276;150.954;2022-11-18T08:13:44;9.88;;;2.22;;
44642;SDS011;33930;-34.276;150.954;2022-11-18T08:16:12;9.43;;;1.77;;
44642;SDS011;33930;-34.276;150.954;2022-11-18T08:18:42;13.52;;;2.60;;
44642;SDS011;33930;-34.276;150.954;2022-11-18T08:21:10;18.83;;;3.55;;
44642;SDS011;33930;-34.276;150.954;2022-11-18T08:23:38;10.18;;;2.22;;
44642;SDS011;33930;-34.276;150.954;2022-11-18T08:26:10;5.95;;;1.73;;
44642;SDS011;33930;-34.276;150.954;2022-11-18T08:28:39;15.83;;;1.63;;
44642;SDS011;33930;-34.276;150.954;2022-11-18T08:31:08;10.25;;;2.55;;
44642;SDS011;33930;-34.276;150.954;2022-11-18T08:33:46;12.02;;;1.73;;
44642;SDS011;33930;-34.276;150.954;2022-11-18T08:36:18;12.93;;;1.75;;
44642;SDS011;33930;-34.276;150.954;2022-11-18T08:38:47;10.35;;;2.00;;
44642;SDS011;33930;-34.276;150.954;2022-11-18T08:41:16;9.98;;;1.88;;
44642;SDS011;33930;-34.276;150.954;2022-11-18T08:43:46;8.63;;;2.08;;
44642;SDS011;33930;-34.276;150.954;2022-11-18T08:46:13;10.43;;;2.78;;
44642;SDS011;33930;-34.276;150.954;2022-11-18T08:48:41;13.73;;;2.75;;
44642;SDS011;33930;-34.276;150.954;2022-11-18T08:51:09;9.43;;;1.60;;
44642;SDS011;33930;-34.276;150.954;2022-11-18T08:53:38;8.25;;;1.67;;
44642;SDS011;33930;-34.276;150.954;2022-11-18T08:56:05;15.77;;;3.28;;
44642;SDS011;33930;-34.276;150.954;2022-11-18T08:58:37;8.43;;;2.20;;
44642;SDS011;33930;-34.276;150.954;2022-11-18T09:01:06;10.18;;;1.90;;
44642;SDS011;33930;-34.276;150.954;2022-11-18T09:03:34;7.47;;;1.80;;
44642;SDS011;33930;-34.276;150.954;2022-11-18T09:06:12;8.85;;;1.70;;
44642;SDS011;33930;-34.276;150.954;2022-11-18T09:08:42;10.43;;;1.75;;
44642;SDS011;33930;-34.276;150.954;2022-11-18T09:11:11;5.70;;;1.70;;
44642;SDS011;33930;-34.276;150.954;2022-11-18T09:13:46;11.10;;;1.98;;
44642;SDS011;33930;-34.276;150.954;2022-11-18T09:16:17;5.63;;;1.20;;
44642;SDS011;33930;-34.276;150.954;2022-11-18T09:18:44;5.68;;;1.13;;
44642;SDS011;33930;-34.276;150.954;2022-11-18T09:21:11;9.90;;;1.40;;
44642;SDS011;33930;-34.276;150.954;2022-11-18T09:23:39;5.28;;;1.40;;
44642;SDS011;33930;-34.276;150.954;2022-11-18T09:26:07;6.90;;;1.17;;
44642;SDS011;33930;-34.276;150.954;2022-11-18T09:28:36;12.63;;;1.25;;
44642;SDS011;33930;-34.276;150.954;2022-11-18T09:31:04;15.85;;;2.42;;
44642;SDS011;33930;-34.276;150.954;2022-11-18T09:33:39;2.45;;;0.90;;
44642;SDS011;33930;-34.276;150.954;2022-11-18T09:36:11;7.35;;;0.98;;
44642;SDS011;33930;-34.276;150.954;2022-11-18T09:38:41;5.03;;;0.90;;
44642;SDS011;33930;-34.276;150.954;2022-11-18T09:47:12;9.57;;;2.15;;
44642;SDS011;33930;-34.276;150.954;2022-11-18T09:49:41;7.78;;;1.50;;
44642;SDS011;33930;-34.276;150.954;2022-11-18T09:52:14;3.67;;;1.42;;
44642;SDS011;33930;-34.276;150.954;2022-11-18T09:54:58;6.38;;;1.55;;
44642;SDS011;33930;-34.276;150.954;2022-11-18T09:57:48;4.40;;;1.20;;
44642;SDS011;33930;-34.276;150.954;2022-11-18T10:00:21;4.85;;;1.55;;
44642;SDS011;33930;-34.276;150.954;2022-11-18T10:05:32;8.07;;;1.03;;
44642;SDS011;33930;-34.276;150.954;2022-11-18T10:11:03;6.80;;;1.83;;
44642;SDS011;33930;-34.276;150.954;2022-11-18T10:13:39;8.80;;;1.83;;
44642;SDS011;33930;-34.276;150.954;2022-11-18T10:19:03;6.25;;;1.50;;
44642;SDS011;33930;-34.276;150.954;2022-11-18T10:24:34;5.65;;;1.33;;
44642;SDS011;33930;-34.276;150.954;2022-11-18T10:27:10;7.15;;;2.38;;
44642;SDS011;33930;-34.276;150.954;2022-11-18T10:29:39;7.57;;;2.38;;
44642;SDS011;33930;-34.276;150.954;2022-11-18T10:32:10;6.70;;;2.15;;
44642;SDS011;33930;-34.276;150.954;2022-11-18T10:35:18;7.10;;;1.45;;
44642;SDS011;33930;-34.276;150.954;2022-11-18T10:37:52;6.03;;;2.13;;
44642;SDS011;33930;-34.276;150.954;2022-11-18T10:40:27;5.07;;;1.50;;
44642;SDS011;33930;-34.276;150.954;2022-11-18T10:42:55;11.02;;;1.50;;
44642;SDS011;33930;-34.276;150.954;2022-11-18T10:50:36;4.38;;;0.90;;
44642;SDS011;33930;-34.276;150.954;2022-11-18T10:53:05;2.75;;;0.73;;
44642;SDS011;33930;-34.276;150.954;2022-11-18T10:55:58;3.40;;;0.93;;
44642;SDS011;33930;-34.276;150.954;2022-11-18T10:58:34;4.60;;;1.70;;
44642;SDS011;33930;-34.276;150.954;2022-11-18T11:01:21;8.93;;;2.38;;
44642;SDS011;33930;-34.276;150.954;2022-11-18T11:04:00;6.47;;;2.42;;
44642;SDS011;33930;-34.276;150.954;2022-11-18T11:06:47;3.92;;;2.05;;
44642;SDS011;33930;-34.276;150.954;2022-11-18T11:12:01;3.25;;;1.95;;
44642;SDS011;33930;-34.276;150.954;2022-11-18T11:14:56;9.55;;;2.35;;
44642;SDS011;33930;-34.276;150.954;2022-11-18T11:17:39;3.72;;;1.65;;
44642;SDS011;33930;-34.276;150.954;2022-11-18T11:20:35;2.35;;;1.33;;
44642;SDS011;33930;-34.276;150.954;2022-11-18T11:23:12;5.85;;;0.90;;
44642;SDS011;33930;-34.276;150.954;2022-11-18T11:26:00;3.10;;;0.65;;
44642;SDS011;33930;-34.276;150.954;2022-11-18T11:34:27;2.65;;;0.73;;
44642;SDS011;33930;-34.276;150.954;2022-11-18T11:37:19;2.30;;;0.28;;
44642;SDS011;33930;-34.276;150.954;2022-11-18T11:42:46;4.45;;;0.68;;
44642;SDS011;33930;-34.276;150.954;2022-11-18T11:48:54;3.55;;;0.80;;
44642;SDS011;33930;-34.276;150.954;2022-11-18T11:57:09;4.40;;;0.68;;
44642;SDS011;33930;-34.276;150.954;2022-11-18T12:00:00;2.75;;;0.65;;
44642;SDS011;33930;-34.276;150.954;2022-11-18T12:03:10;2.83;;;0.63;;
44642;SDS011;33930;-34.276;150.954;2022-11-18T12:05:37;7.68;;;0.60;;
44642;SDS011;33930;-34.276;150.954;2022-11-18T12:08:20;3.10;;;0.52;;
44642;SDS011;33930;-34.276;150.954;2022-11-18T12:17:17;2.40;;;0.50;;
44642;SDS011;33930;-34.276;150.954;2022-11-18T12:19:53;1.77;;;0.50;;
44642;SDS011;33930;-34.276;150.954;2022-11-18T12:22:21;5.97;;;1.27;;
44642;SDS011;33930;-34.276;150.954;2022-11-18T12:24:48;3.65;;;0.60;;
44642;SDS011;33930;-34.276;150.954;2022-11-18T12:29:55;1.60;;;0.40;;
44642;SDS011;33930;-34.276;150.954;2022-11-18T12:40:39;4.43;;;0.45;;
44642;SDS011;33930;-34.276;150.954;2022-11-18T12:54:38;0.88;;;0.57;;
44642;SDS011;33930;-34.276;150.954;2022-11-18T12:57:18;5.13;;;0.98;;
44642;SDS011;33930;-34.276;150.954;2022-11-18T12:59:47;1.20;;;0.50;;
44642;SDS011;33930;-34.276;150.954;2022-11-18T13:07:46;6.68;;;1.42;;
44642;SDS011;33930;-34.276;150.954;2022-11-18T13:10:37;6.03;;;0.98;;
44642;SDS011;33930;-34.276;150.954;2022-11-18T13:13:27;2.80;;;0.37;;
44642;SDS011;33930;-34.276;150.954;2022-11-18T13:16:01;3.28;;;0.52;;
44642;SDS011;33930;-34.276;150.954;2022-11-18T13:18:55;6.53;;;0.47;;
44642;SDS011;33930;-34.276;150.954;2022-11-18T13:21:26;2.03;;;0.45;;
44642;SDS011;33930;-34.276;150.954;2022-11-18T13:24:13;5.53;;;1.42;;
44642;SDS011;33930;-34.276;150.954;2022-11-18T13:26:43;2.60;;;0.50;;
44642;SDS011;33930;-34.276;150.954;2022-11-18T13:34:49;5.50;;;0.90;;
44642;SDS011;33930;-34.276;150.954;2022-11-18T13:40:28;1.65;;;0.38;;
44642;SDS011;33930;-34.276;150.954;2022-11-18T13:43:03;1.88;;;0.38;;
44642;SDS011;33930;-34.276;150.954;2022-11-18T13:45:31;1.15;;;0.30;;
44642;SDS011;33930;-34.276;150.954;2022-11-18T13:50:42;4.65;;;1.98;;
44642;SDS011;33930;-34.276;150.954;2022-11-18T13:55:56;8.75;;;0.55;;
44642;SDS011;33930;-34.276;150.954;2022-11-18T13:58:43;2.45;;;0.40;;
44642;SDS011;33930;-34.276;150.954;2022-11-18T14:01:18;1.55;;;0.50;;
44642;SDS011;33930;-34.276;150.954;2022-11-18T14:03:54;1.95;;;0.35;;
44642;SDS011;33930;-34.276;150.954;2022-11-18T14:06:30;2.10;;;0.68;;
44642;SDS011;33930;-34.276;150.954;2022-11-18T14:09:50;3.80;;;0.68;;
44642;SDS011;33930;-34.276;150.954;2022-11-18T14:15:11;2.13;;;0.30;;
44642;SDS011;33930;-34.276;150.954;2022-11-18T14:17:48;1.75;;;0.45;;
44642;SDS011;33930;-34.276;150.954;2022-11-18T14:20:21;1.25;;;0.43;;
44642;SDS011;33930;-34.276;150.954;2022-11-18T14:22:54;1.20;;;0.40;;
44642;SDS011;33930;-34.276;150.954;2022-11-18T14:25:27;1.90;;;0.17;;
44642;SDS011;33930;-34.276;150.954;2022-11-18T14:28:42;0.77;;;0.20;;
44642;SDS011;33930;-34.276;150.954;2022-11-18T14:31:05;0.32;;;0.20;;
44642;SDS011;33930;-34.276;150.954;2022-11-18T14:36:38;3.55;;;0.50;;
44642;SDS011;33930;-34.276;150.954;2022-11-18T14:41:52;1.55;;;0.35;;
44642;SDS011;33930;-34.276;150.954;2022-11-18T14:44:21;2.90;;;1.45;;
44642;SDS011;33930;-34.276;150.954;2022-11-18T14:46:51;1.60;;;0.40;;
44642;SDS011;33930;-34.276;150.954;2022-11-18T14:49:27;3.03;;;0.70;;
44642;SDS011;33930;-34.276;150.954;2022-11-18T14:51:57;3.13;;;0.43;;
44642;SDS011;33930;-34.276;150.954;2022-11-18T14:54:29;1.08;;;0.40;;
44642;SDS011;33930;-34.276;150.954;2022-11-18T14:56:59;3.17;;;0.50;;
44642;SDS011;33930;-34.276;150.954;2022-11-18T14:59:27;5.55;;;0.43;;
44642;SDS011;33930;-34.276;150.954;2022-11-18T15:01:55;5.00;;;0.70;;
44642;SDS011;33930;-34.276;150.954;2022-11-18T15:04:24;2.47;;;0.35;;
44642;SDS011;33930;-34.276;150.954;2022-11-18T15:06:51;1.58;;;0.25;;
44642;SDS011;33930;-34.276;150.954;2022-11-18T15:09:18;5.38;;;0.68;;
44642;SDS011;33930;-34.276;150.954;2022-11-18T15:11:46;2.88;;;0.60;;
44642;SDS011;33930;-34.276;150.954;2022-11-18T15:14:13;6.03;;;0.82;;
44642;SDS011;33930;-34.276;150.954;2022-11-18T15:16:40;2.78;;;0.60;;
44642;SDS011;33930;-34.276;150.954;2022-11-18T15:19:08;4.30;;;0.70;;
44642;SDS011;33930;-34.276;150.954;2022-11-18T15:21:41;4.97;;;0.32;;
44642;SDS011;33930;-34.276;150.954;2022-11-18T15:24:09;6.15;;;0.82;;
44642;SDS011;33930;-34.276;150.954;2022-11-18T15:26:41;2.88;;;0.80;;
44642;SDS011;33930;-34.276;150.954;2022-11-18T15:31:46;3.03;;;0.40;;
44642;SDS011;33930;-34.276;150.954;2022-11-18T15:34:14;1.80;;;0.30;;
44642;SDS011;33930;-34.276;150.954;2022-11-18T15:36:43;1.58;;;0.30;;
44642;SDS011;33930;-34.276;150.954;2022-11-18T15:39:10;3.45;;;0.57;;
44642;SDS011;33930;-34.276;150.954;2022-11-18T15:41:38;2.58;;;0.52;;
44642;SDS011;33930;-34.276;150.954;2022-11-18T15:44:08;3.60;;;0.88;;
44642;SDS011;33930;-34.276;150.954;2022-11-18T15:46:36;4.03;;;0.20;;
44642;SDS011;33930;-34.276;150.954;2022-11-18T15:49:04;4.47;;;0.57;;
44642;SDS011;33930;-34.276;150.954;2022-11-18T15:51:31;1.60;;;0.40;;
44642;SDS011;33930;-34.276;150.954;2022-11-18T15:53:59;3.72;;;0.50;;
44642;SDS011;33930;-34.276;150.954;2022-11-18T15:56:27;2.78;;;0.40;;
44642;SDS011;33930;-34.276;150.954;2022-11-18T15:59:03;4.47;;;0.40;;
44642;SDS011;33930;-34.276;150.954;2022-11-18T16:01:32;3.03;;;0.43;;
44642;SDS011;33930;-34.276;150.954;2022-11-18T16:04:02;3.10;;;0.73;;
44642;SDS011;33930;-34.276;150.954;2022-11-18T16:06:32;2.33;;;0.52;;
44642;SDS011;33930;-34.276;150.954;2022-11-18T16:09:00;2.70;;;0.47;;
44642;SDS011;33930;-34.276;150.954;2022-11-18T16:11:28;1.48;;;0.30;;
44642;SDS011;33930;-34.276;150.954;2022-11-18T16:14:15;0.77;;;0.20;;
44642;SDS011;33930;-34.276;150.954;2022-11-18T16:16:44;2.78;;;0.30;;
44642;SDS011;33930;-34.276;150.954;2022-11-18T16:19:14;2.25;;;0.52;;
44642;SDS011;33930;-34.276;150.954;2022-11-18T16:21:44;3.17;;;0.70;;
44642;SDS011;33930;-34.276;150.954;2022-11-18T16:24:15;1.55;;;0.28;;
44642;SDS011;33930;-34.276;150.954;2022-11-18T16:26:47;2.80;;;0.53;;
44642;SDS011;33930;-34.276;150.954;2022-11-18T16:29:15;3.58;;;0.60;;
44642;SDS011;33930;-34.276;150.954;2022-11-18T16:31:43;2.30;;;0.60;;
44642;SDS011;33930;-34.276;150.954;2022-11-18T16:34:25;4.68;;;0.40;;
44642;SDS011;33930;-34.276;150.954;2022-11-18T16:36:54;4.93;;;0.70;;
44642;SDS011;33930;-34.276;150.954;2022-11-18T16:39:23;5.18;;;0.30;;
44642;SDS011;33930;-34.276;150.954;2022-11-18T16:41:53;1.92;;;0.32;;
44642;SDS011;33930;-34.276;150.954;2022-11-18T16:44:24;1.08;;;0.28;;
44642;SDS011;33930;-34.276;150.954;2022-11-18T16:46:53;2.00;;;0.43;;
44642;SDS011;33930;-34.276;150.954;2022-11-18T16:49:25;1.48;;;0.30;;